createdAt,value
2024-01-20T00:00:15.905Z,15.90
2024-01-20T00:02:45.101Z,10.95
2024-01-20T00:05:14.194Z,11.52
2024-01-20T00:07:44.272Z,11.43
2024-01-20T00:10:14.428Z,8.90
2024-01-20T00:12:43.850Z,13.68
2024-01-20T00:15:14.583Z,15.65
2024-01-20T00:17:43.983Z,11.70
2024-01-20T00:20:13.567Z,10.35
2024-01-20T00:22:42.172Z,9.30
2024-01-20T00:25:11.487Z,13.35
2024-01-20T00:27:40.868Z,12.45
2024-01-20T00:30:09.712Z,10.57
2024-01-20T00:32:39.737Z,12.13
2024-01-20T00:35:08.979Z,10.68
2024-01-20T00:37:38.056Z,10.35
2024-01-20T00:40:09.837Z,10.77
2024-01-20T00:42:38.165Z,11.95
2024-01-20T00:45:07.180Z,12.82
2024-01-20T00:47:39.410Z,9.77
2024-01-20T00:50:10.099Z,9.27
2024-01-20T00:52:38.780Z,11.18
2024-01-20T00:55:07.791Z,10.00
2024-01-20T00:57:36.151Z,10.98
2024-01-20T01:00:10.720Z,11.40
2024-01-20T01:02:39.141Z,12.52
2024-01-20T01:05:08.215Z,12.30
2024-01-20T01:07:38.362Z,10.13
2024-01-20T01:10:07.898Z,10.05
2024-01-20T01:12:36.451Z,11.90
2024-01-20T01:15:05.449Z,8.95
2024-01-20T01:17:34.321Z,8.50
2024-01-20T01:20:02.946Z,13.15
2024-01-20T01:22:31.704Z,9.95
2024-01-20T01:25:01.474Z,11.02
2024-01-20T01:27:29.953Z,11.80
2024-01-20T01:29:58.312Z,10.23
2024-01-20T01:32:26.932Z,11.35
2024-01-20T01:34:55.384Z,11.02
2024-01-20T01:37:23.864Z,11.27
2024-01-20T01:39:51.308Z,12.48
2024-01-20T01:42:20.949Z,12.65
2024-01-20T01:44:49.298Z,10.55
2024-01-20T01:47:17.672Z,10.75
2024-01-20T01:49:46.218Z,11.38
2024-01-20T01:52:15.034Z,9.75
2024-01-20T01:54:43.493Z,10.98
2024-01-20T01:57:11.942Z,11.48
2024-01-20T01:59:42.732Z,12.60
2024-01-20T02:02:11.612Z,13.27
2024-01-20T02:04:40.298Z,9.60
2024-01-20T02:07:09.069Z,13.05
2024-01-20T02:09:37.411Z,11.52
2024-01-20T02:12:06.091Z,11.52
2024-01-20T02:14:34.821Z,15.05
2024-01-20T02:17:07.888Z,12.02
2024-01-20T02:19:39.745Z,12.07
2024-01-20T02:22:13.036Z,12.50
2024-01-20T02:24:41.708Z,12.43
2024-01-20T02:27:10.693Z,15.35
2024-01-20T02:29:40.650Z,17.15
2024-01-20T02:32:09.090Z,14.48
2024-01-20T02:34:38.771Z,10.88
2024-01-20T02:37:08.487Z,9.65
2024-01-20T02:39:38.507Z,12.05
2024-01-20T02:42:09.705Z,9.57
2024-01-20T02:44:38.209Z,8.27
2024-01-20T02:47:06.958Z,8.15
2024-01-20T02:49:35.702Z,10.50
2024-01-20T02:52:04.837Z,10.18
2024-01-20T02:54:33.290Z,9.57
2024-01-20T02:57:03.181Z,13.77
2024-01-20T02:59:31.547Z,8.90
2024-01-20T03:01:59.927Z,10.43
2024-01-20T03:04:28.357Z,9.60
2024-01-20T03:06:56.737Z,9.23
2024-01-20T03:09:25.157Z,9.00
2024-01-20T03:11:53.568Z,8.05
2024-01-20T03:14:23.244Z,8.27
2024-01-20T03:16:51.620Z,9.55
2024-01-20T03:19:20.037Z,10.73
2024-01-20T03:21:48.502Z,10.93
2024-01-20T03:24:20.208Z,7.60
2024-01-20T03:26:50.329Z,8.77
2024-01-20T03:29:19.644Z,9.60
2024-01-20T03:31:49.305Z,12.02
2024-01-20T03:34:17.751Z,11.13
2024-01-20T03:36:47.240Z,9.60
2024-01-20T03:39:15.576Z,9.52
2024-01-20T03:41:43.938Z,10.20
2024-01-20T03:44:12.324Z,7.38
2024-01-20T03:46:40.647Z,9.32
2024-01-20T03:49:10.510Z,11.45
2024-01-20T03:51:39.186Z,10.18
2024-01-20T03:54:07.795Z,11.90
2024-01-20T03:56:36.212Z,10.60
2024-01-20T03:59:04.788Z,13.20
2024-01-20T04:01:33.119Z,11.90
2024-01-20T04:04:01.629Z,12.82
2024-01-20T04:06:33.094Z,10.85
2024-01-20T04:09:01.574Z,13.82
2024-01-20T04:11:30.024Z,11.75
2024-01-20T04:13:58.383Z,12.27
2024-01-20T04:16:26.820Z,12.40
2024-01-20T04:18:55.279Z,12.27
2024-01-20T04:21:25.060Z,13.32
2024-01-20T04:23:54.855Z,9.57
2024-01-20T04:26:23.226Z,16.27
2024-01-20T04:28:51.620Z,15.50
2024-01-20T04:31:20.023Z,13.05
2024-01-20T04:33:48.455Z,15.57
2024-01-20T04:36:17.111Z,14.40
2024-01-20T04:38:45.978Z,15.57
2024-01-20T04:41:15.676Z,11.68
2024-01-20T04:43:44.109Z,11.98
2024-01-20T04:46:12.521Z,13.15
2024-01-20T04:48:40.944Z,12.38
2024-01-20T04:51:10.712Z,11.48
2024-01-20T04:53:39.077Z,12.15
2024-01-20T04:56:07.756Z,13.63
2024-01-20T04:58:37.712Z,12.90
2024-01-20T05:01:06.625Z,10.77
2024-01-20T05:03:35.028Z,11.68
2024-01-20T05:06:04.178Z,13.15
2024-01-20T05:08:32.741Z,11.05
2024-01-20T05:11:01.153Z,11.13
2024-01-20T05:13:29.482Z,13.85
2024-01-20T05:15:59.180Z,14.23
2024-01-20T05:18:27.795Z,14.13
2024-01-20T05:20:56.322Z,16.50
2024-01-20T05:23:24.661Z,13.80
2024-01-20T05:25:53.016Z,14.98
2024-01-20T05:28:21.458Z,12.68
2024-01-20T05:30:50.236Z,12.30
2024-01-20T05:33:20.025Z,13.93
2024-01-20T05:35:48.479Z,11.77
2024-01-20T05:38:16.862Z,11.40
2024-01-20T05:40:46.209Z,10.57
2024-01-20T05:43:14.613Z,11.82
2024-01-20T05:45:43.058Z,11.23
2024-01-20T05:48:11.897Z,11.40
2024-01-20T05:50:41.687Z,13.43
2024-01-20T05:53:10.112Z,14.93
2024-01-20T05:55:38.474Z,12.35
2024-01-20T05:58:06.941Z,12.30
2024-01-20T06:00:35.408Z,14.48
2024-01-20T06:03:03.923Z,12.68
2024-01-20T06:05:32.482Z,14.63
2024-01-20T06:08:02.155Z,12.02
2024-01-20T06:10:30.555Z,11.68
2024-01-20T06:12:58.872Z,10.20
2024-01-20T06:15:27.317Z,13.93
2024-01-20T06:17:55.645Z,15.23
2024-01-20T06:20:24.006Z,11.80
2024-01-20T06:22:52.369Z,13.07
2024-01-20T06:25:22.027Z,14.70
2024-01-20T06:27:50.363Z,14.27
2024-01-20T06:30:19.332Z,15.93
2024-01-20T06:32:47.748Z,13.02
2024-01-20T06:35:16.943Z,14.60
2024-01-20T06:37:45.368Z,13.40
2024-01-20T06:40:14.060Z,13.48
2024-01-20T06:42:43.859Z,22.10
2024-01-20T06:45:12.361Z,21.45
2024-01-20T06:47:40.910Z,17.23
2024-01-20T06:50:09.885Z,12.93
2024-01-20T06:52:38.203Z,16.05
2024-01-20T06:55:07.772Z,13.75
2024-01-20T06:57:36.161Z,12.30
2024-01-20T07:00:08.973Z,11.32
2024-01-20T07:02:37.376Z,17.52
2024-01-20T07:05:06.550Z,12.73
2024-01-20T07:07:35.001Z,11.48
2024-01-20T07:10:03.462Z,12.18
2024-01-20T07:12:32.017Z,19.90
2024-01-20T07:15:00.984Z,19.17
2024-01-20T07:17:30.989Z,22.35
2024-01-20T07:19:59.420Z,13.13
2024-01-20T07:22:27.806Z,21.27
2024-01-20T07:24:56.224Z,17.25
2024-01-20T07:27:26.165Z,18.33
2024-01-20T07:29:54.550Z,13.82
2024-01-20T07:32:22.915Z,21.77
2024-01-20T07:34:52.666Z,13.80
2024-01-20T07:37:21.110Z,14.70
2024-01-20T07:39:51.105Z,17.55
2024-01-20T07:42:19.751Z,15.88
2024-01-20T07:44:49.940Z,16.77
2024-01-20T07:47:18.504Z,17.50
2024-01-20T07:49:46.883Z,20.30
2024-01-20T07:52:16.611Z,14.80
2024-01-20T07:54:45.023Z,14.82
2024-01-20T07:57:13.495Z,15.70
2024-01-20T07:59:41.791Z,20.00
2024-01-20T08:02:10.381Z,15.05
2024-01-20T08:04:38.822Z,18.45
2024-01-20T08:07:07.289Z,15.90
2024-01-20T08:09:37.178Z,21.55
2024-01-20T08:12:06.762Z,19.15
2024-01-20T08:14:35.114Z,18.38
2024-01-20T08:17:03.521Z,15.27
2024-01-20T08:19:32.104Z,20.38
2024-01-20T08:22:00.584Z,17.38
2024-01-20T08:24:28.995Z,16.42
2024-01-20T08:26:58.671Z,20.90
2024-01-20T08:29:37.583Z,15.68
2024-01-20T08:32:12.511Z,18.25
2024-01-20T08:35:06.792Z,22.13
2024-01-20T08:40:17.821Z,19.90
2024-01-20T08:43:07.301Z,18.13
2024-01-20T08:45:53.609Z,21.25
2024-01-20T08:48:35.737Z,13.57
2024-01-20T08:54:23.940Z,18.23
2024-01-20T08:57:01.885Z,17.98
2024-01-20T08:59:55.544Z,19.40
2024-01-20T09:05:54.274Z,18.92
2024-01-20T09:14:24.195Z,20.08
2024-01-20T09:17:20.233Z,16.35
2024-01-20T09:20:16.029Z,17.80
2024-01-20T09:23:09.893Z,14.20
2024-01-20T09:26:07.237Z,15.90
2024-01-20T09:31:27.708Z,15.20
2024-01-20T09:34:21.267Z,19.52
2024-01-20T09:40:06.038Z,14.27
2024-01-20T09:42:56.525Z,12.90
2024-01-20T09:46:08.023Z,14.13
2024-01-20T09:48:49.895Z,15.15
2024-01-20T09:51:56.042Z,14.88
2024-01-20T09:55:08.666Z,16.77
2024-01-20T09:58:06.676Z,15.68
2024-01-20T10:07:07.212Z,13.20
2024-01-20T10:10:10.538Z,16.15
2024-01-20T10:38:45.655Z,16.48
2024-01-20T10:41:23.025Z,12.40
2024-01-20T10:44:16.436Z,13.25
2024-01-20T10:46:59.226Z,13.53
2024-01-20T10:49:41.355Z,12.77
2024-01-20T10:55:35.741Z,12.93
2024-01-20T10:58:29.757Z,13.70
2024-01-20T11:01:03.130Z,13.35
2024-01-20T11:03:32.856Z,17.10
2024-01-20T11:06:03.075Z,15.05
2024-01-20T11:08:37.513Z,16.55
2024-01-20T11:14:05.140Z,14.98
2024-01-20T11:16:38.547Z,15.80
2024-01-20T11:19:19.218Z,13.52
2024-01-20T11:21:52.225Z,15.00
2024-01-20T11:24:41.552Z,17.38
2024-01-20T11:27:14.768Z,13.38
2024-01-20T11:30:02.794Z,14.70
2024-01-20T11:32:36.003Z,18.60
2024-01-20T11:35:14.383Z,18.02
2024-01-20T11:37:43.651Z,22.35
2024-01-20T11:40:25.003Z,18.70
2024-01-20T11:43:25.928Z,17.77
2024-01-20T11:46:07.841Z,18.60
2024-01-20T11:49:03.029Z,18.83
2024-01-20T11:51:56.847Z,18.35
2024-01-20T11:54:32.640Z,18.10
2024-01-20T11:57:59.843Z,17.52
2024-01-20T12:01:41.765Z,14.35
2024-01-20T12:04:24.340Z,14.35
2024-01-20T12:13:37.119Z,19.65
2024-01-20T13:20:07.957Z,17.88
2024-01-20T13:22:39.898Z,18.10
2024-01-20T13:25:12.111Z,19.42
2024-01-20T13:27:47.468Z,19.75
2024-01-20T13:30:25.765Z,17.92
2024-01-20T13:33:08.417Z,19.20
2024-01-20T13:35:39.829Z,18.05
2024-01-20T13:38:32.890Z,17.67
2024-01-20T13:41:16.698Z,17.55
2024-01-20T13:43:52.630Z,16.98
2024-01-20T13:46:48.351Z,19.40
2024-01-20T13:49:21.826Z,20.75
2024-01-20T13:51:54.231Z,18.73
2024-01-20T13:54:27.791Z,18.75
2024-01-20T13:59:50.370Z,17.55
2024-01-20T14:02:44.078Z,18.63
2024-01-20T18:16:18.876Z,17.63
2024-01-20T18:19:01.931Z,17.80
2024-01-20T18:21:35.313Z,26.38
2024-01-20T18:24:16.722Z,27.80
2024-01-20T18:26:52.066Z,18.45
2024-01-20T18:29:31.772Z,16.33
2024-01-20T18:32:09.111Z,12.63
2024-01-20T18:34:44.269Z,14.73
2024-01-20T18:37:27.698Z,19.25
2024-01-20T18:43:01.558Z,17.63
2024-01-20T18:45:39.175Z,18.95
2024-01-20T18:48:23.547Z,21.40
2024-01-20T18:51:08.272Z,17.35
2024-01-20T18:53:44.152Z,17.75
2024-01-20T18:56:17.427Z,20.45
2024-01-20T18:59:00.494Z,17.70
2024-01-20T19:01:32.092Z,23.20
2024-01-20T19:04:04.419Z,19.95
2024-01-20T19:06:53.212Z,19.15
2024-01-20T19:09:38.207Z,23.05
2024-01-20T19:12:12.902Z,18.00
2024-01-20T19:14:45.471Z,18.05
2024-01-20T19:17:30.885Z,15.82
2024-01-20T19:20:29.772Z,14.23
2024-01-20T19:22:59.902Z,12.98
2024-01-20T19:25:31.164Z,15.10
2024-01-20T19:28:00.945Z,13.07
2024-01-20T19:30:29.696Z,16.88
2024-01-20T19:32:58.442Z,14.98
2024-01-20T19:35:29.882Z,18.40
2024-01-20T19:38:10.424Z,17.25
2024-01-20T19:40:49.486Z,18.73
2024-01-20T19:43:24.099Z,19.42
2024-01-20T19:45:57.958Z,17.85
2024-01-20T19:48:27.799Z,20.23
2024-01-20T19:51:05.671Z,16.17
2024-01-20T19:53:49.780Z,17.83
2024-01-20T19:56:18.198Z,17.40
2024-01-20T19:58:49.691Z,15.95
2024-01-20T20:01:24.563Z,21.08
2024-01-20T20:03:55.335Z,23.17
2024-01-20T20:06:29.431Z,35.78
2024-01-20T20:09:01.572Z,30.30
2024-01-20T20:11:38.332Z,31.85
2024-01-20T20:14:12.858Z,25.40
2024-01-20T20:16:45.372Z,23.63
2024-01-20T20:19:14.236Z,23.58
2024-01-20T20:21:42.965Z,22.38
2024-01-20T20:24:28.933Z,23.80
2024-01-20T20:27:03.543Z,22.52
2024-01-20T20:29:37.193Z,24.35
2024-01-20T20:32:08.457Z,31.05
2024-01-20T20:34:42.513Z,24.90
2024-01-20T20:37:23.400Z,30.48
2024-01-20T20:40:04.392Z,31.30
2024-01-20T20:42:34.625Z,32.92
2024-01-20T20:45:07.887Z,31.90
2024-01-20T20:47:36.733Z,34.53
2024-01-20T20:50:06.622Z,25.35
2024-01-20T20:52:35.522Z,30.98
2024-01-20T20:55:04.032Z,30.23
2024-01-20T20:57:34.954Z,29.58
2024-01-20T21:00:04.378Z,36.95
2024-01-20T21:02:32.938Z,31.80
2024-01-20T21:05:01.504Z,35.67
2024-01-20T21:07:31.834Z,38.45
2024-01-20T21:10:04.153Z,33.67
2024-01-20T21:12:34.071Z,29.15
2024-01-20T21:15:02.613Z,31.05
2024-01-20T21:17:59.476Z,32.63
2024-01-20T21:20:29.830Z,40.08
2024-01-20T21:23:01.019Z,34.25
2024-01-20T21:25:32.937Z,47.63
2024-01-20T21:28:06.872Z,68.57
2024-01-20T21:30:39.046Z,46.80
2024-01-20T21:33:14.563Z,44.03
2024-01-20T21:36:19.905Z,44.70
2024-01-20T21:38:48.431Z,45.47
2024-01-20T21:41:33.008Z,41.70
2024-01-20T21:44:04.311Z,36.88
2024-01-20T21:46:43.022Z,36.65
2024-01-20T21:49:17.878Z,34.47
2024-01-20T21:51:58.839Z,28.75
2024-01-20T21:54:38.220Z,35.25
2024-01-20T21:57:07.193Z,35.55
2024-01-20T21:59:50.874Z,36.08
2024-01-20T22:02:21.112Z,39.13
2024-01-20T22:04:52.855Z,26.67
2024-01-20T22:07:38.105Z,39.20
2024-01-20T22:10:15.376Z,38.78
2024-01-20T22:13:07.782Z,39.03
2024-01-20T22:15:38.319Z,48.90
2024-01-20T22:18:07.114Z,39.58
2024-01-20T22:20:36.225Z,43.17
2024-01-20T22:23:04.760Z,47.10
2024-01-20T22:25:33.232Z,40.00
2024-01-20T22:28:07.595Z,39.22
2024-01-20T22:30:40.313Z,32.35
2024-01-20T22:33:11.444Z,37.05
2024-01-20T22:35:40.065Z,31.77
2024-01-20T22:38:08.787Z,41.22
2024-01-20T22:40:37.334Z,32.45
2024-01-20T22:43:06.319Z,40.42
2024-01-20T22:45:37.768Z,30.13
2024-01-20T22:48:08.268Z,29.77
2024-01-20T22:50:36.913Z,30.88
2024-01-20T22:53:05.491Z,35.90
2024-01-20T22:55:33.954Z,27.90
2024-01-20T22:58:02.395Z,29.48
2024-01-20T23:00:31.027Z,31.50
2024-01-20T23:02:59.624Z,26.70
2024-01-20T23:05:32.682Z,32.03
2024-01-20T23:08:01.123Z,27.65
2024-01-20T23:10:30.565Z,31.60
2024-01-20T23:12:59.149Z,31.80
2024-01-20T23:15:27.706Z,31.00
2024-01-20T23:17:56.234Z,39.83
2024-01-20T23:20:23.970Z,23.40
2024-01-20T23:22:53.878Z,31.08
2024-01-20T23:25:22.394Z,31.55
2024-01-20T23:27:51.023Z,28.23
2024-01-20T23:30:21.171Z,26.75
2024-01-20T23:32:49.677Z,34.17
2024-01-20T23:35:18.197Z,38.53
2024-01-20T23:37:46.734Z,25.80
2024-01-20T23:40:16.838Z,27.80
2024-01-20T23:42:45.441Z,33.70
2024-01-20T23:45:14.836Z,42.70
2024-01-20T23:47:45.293Z,34.17
2024-01-20T23:50:23.966Z,32.10
2024-01-20T23:52:54.631Z,32.95
2024-01-20T23:55:24.567Z,31.20
2024-01-20T23:57:53.140Z,34.10
